sensor_id;sensor_type;location;lat;lon;timestamp;P1;durP1;ratioP1;P2;durP2;ratioP2
67248;SDS011;63247;54.300;18.592;2023-03-01T00:01:24;13.70;;;4.20;;
67248;SDS011;63247;54.300;18.592;2023-03-01T00:03:51;13.77;;;4.60;;
67248;SDS011;63247;54.300;18.592;2023-03-01T00:06:18;18.40;;;4.97;;
67248;SDS011;63247;54.300;18.592;2023-03-01T00:08:44;18.13;;;5.22;;
67248;SDS011;63247;54.300;18.592;2023-03-01T00:13:39;12.52;;;4.32;;
67248;SDS011;63247;54.300;18.592;2023-03-01T00:16:07;16.38;;;5.13;;
67248;SDS011;63247;54.300;18.592;2023-03-01T00:18:34;15.05;;;4.15;;
67248;SDS011;63247;54.300;18.592;2023-03-01T00:20:59;14.10;;;4.23;;
67248;SDS011;63247;54.300;18.592;2023-03-01T00:23:25;17.30;;;3.90;;
67248;SDS011;63247;54.300;18.592;2023-03-01T00:25:51;16.50;;;4.03;;
67248;SDS011;63247;54.300;18.592;2023-03-01T00:28:17;12.80;;;4.00;;
67248;SDS011;63247;54.300;18.592;2023-03-01T00:30:43;15.23;;;4.63;;
67248;SDS011;63247;54.300;18.592;2023-03-01T00:33:08;13.95;;;3.95;;
67248;SDS011;63247;54.300;18.592;2023-03-01T00:35:34;13.43;;;3.80;;
67248;SDS011;63247;54.300;18.592;2023-03-01T00:38:00;12.43;;;3.78;;
67248;SDS011;63247;54.300;18.592;2023-03-01T00:40:26;13.13;;;4.05;;
67248;SDS011;63247;54.300;18.592;2023-03-01T00:42:53;15.20;;;4.80;;
67248;SDS011;63247;54.300;18.592;2023-03-01T00:45:18;12.02;;;3.65;;
67248;SDS011;63247;54.300;18.592;2023-03-01T00:47:44;17.47;;;5.20;;
67248;SDS011;63247;54.300;18.592;2023-03-01T00:50:09;15.03;;;4.20;;
67248;SDS011;63247;54.300;18.592;2023-03-01T00:52:36;13.70;;;4.22;;
67248;SDS011;63247;54.300;18.592;2023-03-01T00:55:02;15.40;;;4.45;;
67248;SDS011;63247;54.300;18.592;2023-03-01T00:57:28;15.30;;;4.30;;
67248;SDS011;63247;54.300;18.592;2023-03-01T00:59:56;13.82;;;4.07;;
67248;SDS011;63247;54.300;18.592;2023-03-01T01:02:22;18.73;;;5.47;;
67248;SDS011;63247;54.300;18.592;2023-03-01T01:04:48;14.30;;;4.05;;
67248;SDS011;63247;54.300;18.592;2023-03-01T01:07:13;11.68;;;3.67;;
67248;SDS011;63247;54.300;18.592;2023-03-01T01:09:39;18.55;;;5.22;;
67248;SDS011;63247;54.300;18.592;2023-03-01T01:12:05;16.07;;;4.67;;
67248;SDS011;63247;54.300;18.592;2023-03-01T01:14:31;12.93;;;4.57;;
67248;SDS011;63247;54.300;18.592;2023-03-01T01:16:57;16.25;;;4.38;;
67248;SDS011;63247;54.300;18.592;2023-03-01T01:19:23;13.57;;;3.60;;
67248;SDS011;63247;54.300;18.592;2023-03-01T01:21:49;16.02;;;5.22;;
67248;SDS011;63247;54.300;18.592;2023-03-01T01:24:15;15.93;;;5.03;;
67248;SDS011;63247;54.300;18.592;2023-03-01T01:26:41;19.77;;;5.35;;
67248;SDS011;63247;54.300;18.592;2023-03-01T01:29:08;19.08;;;5.13;;
67248;SDS011;63247;54.300;18.592;2023-03-01T01:31:35;17.05;;;5.25;;
67248;SDS011;63247;54.300;18.592;2023-03-01T01:34:03;14.70;;;4.18;;
67248;SDS011;63247;54.300;18.592;2023-03-01T01:36:31;18.37;;;6.27;;
67248;SDS011;63247;54.300;18.592;2023-03-01T01:38:57;19.63;;;5.57;;
67248;SDS011;63247;54.300;18.592;2023-03-01T01:41:23;21.38;;;5.88;;
67248;SDS011;63247;54.300;18.592;2023-03-01T01:44:09;15.13;;;5.17;;
67248;SDS011;63247;54.300;18.592;2023-03-01T01:46:47;14.45;;;4.55;;
67248;SDS011;63247;54.300;18.592;2023-03-01T01:52:36;17.88;;;5.05;;
67248;SDS011;63247;54.300;18.592;2023-03-01T01:55:04;17.75;;;5.18;;
67248;SDS011;63247;54.300;18.592;2023-03-01T01:57:38;16.10;;;4.67;;
67248;SDS011;63247;54.300;18.592;2023-03-01T02:00:11;15.05;;;4.70;;
67248;SDS011;63247;54.300;18.592;2023-03-01T02:02:39;14.63;;;4.85;;
67248;SDS011;63247;54.300;18.592;2023-03-01T02:05:19;19.75;;;5.75;;
67248;SDS011;63247;54.300;18.592;2023-03-01T02:07:51;18.95;;;5.80;;
67248;SDS011;63247;54.300;18.592;2023-03-01T02:10:17;18.57;;;5.43;;
67248;SDS011;63247;54.300;18.592;2023-03-01T02:12:42;18.10;;;5.60;;
67248;SDS011;63247;54.300;18.592;2023-03-01T02:15:08;20.60;;;6.13;;
67248;SDS011;63247;54.300;18.592;2023-03-01T02:17:34;17.93;;;5.47;;
67248;SDS011;63247;54.300;18.592;2023-03-01T02:20:14;19.88;;;5.88;;
67248;SDS011;63247;54.300;18.592;2023-03-01T02:22:47;15.70;;;4.47;;
67248;SDS011;63247;54.300;18.592;2023-03-01T02:30:13;21.27;;;6.97;;
67248;SDS011;63247;54.300;18.592;2023-03-01T02:32:39;18.95;;;5.90;;
67248;SDS011;63247;54.300;18.592;2023-03-01T02:35:08;25.53;;;8.23;;
67248;SDS011;63247;54.300;18.592;2023-03-01T02:37:35;14.80;;;4.90;;
67248;SDS011;63247;54.300;18.592;2023-03-01T02:40:02;27.17;;;7.78;;
67248;SDS011;63247;54.300;18.592;2023-03-01T02:42:31;21.23;;;6.93;;
67248;SDS011;63247;54.300;18.592;2023-03-01T02:45:02;29.05;;;7.70;;
67248;SDS011;63247;54.300;18.592;2023-03-01T02:47:28;31.52;;;9.43;;
67248;SDS011;63247;54.300;18.592;2023-03-01T02:49:53;26.93;;;8.53;;
67248;SDS011;63247;54.300;18.592;2023-03-01T02:57:40;30.83;;;8.60;;
67248;SDS011;63247;54.300;18.592;2023-03-01T03:00:28;32.50;;;9.70;;
67248;SDS011;63247;54.300;18.592;2023-03-01T03:02:55;36.05;;;9.30;;
67248;SDS011;63247;54.300;18.592;2023-03-01T03:05:26;37.27;;;9.03;;
67248;SDS011;63247;54.300;18.592;2023-03-01T03:07:53;27.25;;;8.95;;
67248;SDS011;63247;54.300;18.592;2023-03-01T03:10:20;36.83;;;10.02;;
67248;SDS011;63247;54.300;18.592;2023-03-01T03:12:51;39.77;;;11.13;;
67248;SDS011;63247;54.300;18.592;2023-03-01T03:15:18;34.08;;;9.70;;
67248;SDS011;63247;54.300;18.592;2023-03-01T03:17:43;31.23;;;8.82;;
67248;SDS011;63247;54.300;18.592;2023-03-01T03:20:10;33.17;;;9.83;;
67248;SDS011;63247;54.300;18.592;2023-03-01T03:22:40;32.75;;;9.45;;
67248;SDS011;63247;54.300;18.592;2023-03-01T03:25:09;29.50;;;9.13;;
67248;SDS011;63247;54.300;18.592;2023-03-01T03:27:36;33.25;;;9.13;;
67248;SDS011;63247;54.300;18.592;2023-03-01T03:30:03;32.37;;;10.60;;
67248;SDS011;63247;54.300;18.592;2023-03-01T03:32:34;36.38;;;9.55;;
67248;SDS011;63247;54.300;18.592;2023-03-01T03:35:03;30.70;;;9.30;;
67248;SDS011;63247;54.300;18.592;2023-03-01T03:37:37;34.60;;;9.80;;
67248;SDS011;63247;54.300;18.592;2023-03-01T03:40:23;34.10;;;9.80;;
67248;SDS011;63247;54.300;18.592;2023-03-01T03:42:49;34.40;;;9.67;;
67248;SDS011;63247;54.300;18.592;2023-03-01T03:45:15;39.05;;;10.38;;
67248;SDS011;63247;54.300;18.592;2023-03-01T03:47:42;34.28;;;9.77;;
67248;SDS011;63247;54.300;18.592;2023-03-01T03:50:09;38.20;;;11.00;;
67248;SDS011;63247;54.300;18.592;2023-03-01T03:52:35;39.13;;;9.77;;
67248;SDS011;63247;54.300;18.592;2023-03-01T03:55:01;35.92;;;9.85;;
67248;SDS011;63247;54.300;18.592;2023-03-01T03:57:27;37.60;;;9.50;;
67248;SDS011;63247;54.300;18.592;2023-03-01T03:59:52;42.90;;;11.47;;
67248;SDS011;63247;54.300;18.592;2023-03-01T04:02:18;28.97;;;8.23;;
67248;SDS011;63247;54.300;18.592;2023-03-01T04:04:47;33.97;;;9.52;;
67248;SDS011;63247;54.300;18.592;2023-03-01T04:07:15;43.30;;;10.20;;
67248;SDS011;63247;54.300;18.592;2023-03-01T04:09:41;45.35;;;11.80;;
67248;SDS011;63247;54.300;18.592;2023-03-01T04:12:07;38.47;;;10.38;;
67248;SDS011;63247;54.300;18.592;2023-03-01T04:14:33;39.13;;;11.47;;
67248;SDS011;63247;54.300;18.592;2023-03-01T04:16:59;39.08;;;10.05;;
67248;SDS011;63247;54.300;18.592;2023-03-01T04:19:24;32.80;;;9.80;;
67248;SDS011;63247;54.300;18.592;2023-03-01T04:21:52;44.15;;;11.50;;
67248;SDS011;63247;54.300;18.592;2023-03-01T04:24:18;37.05;;;10.43;;
67248;SDS011;63247;54.300;18.592;2023-03-01T04:26:43;41.87;;;10.00;;
67248;SDS011;63247;54.300;18.592;2023-03-01T04:29:09;43.07;;;11.90;;
67248;SDS011;63247;54.300;18.592;2023-03-01T04:31:35;44.72;;;11.65;;
67248;SDS011;63247;54.300;18.592;2023-03-01T04:34:00;43.90;;;11.63;;
67248;SDS011;63247;54.300;18.592;2023-03-01T04:36:28;35.30;;;10.02;;
67248;SDS011;63247;54.300;18.592;2023-03-01T04:38:54;42.33;;;11.97;;
67248;SDS011;63247;54.300;18.592;2023-03-01T04:41:21;40.47;;;11.77;;
67248;SDS011;63247;54.300;18.592;2023-03-01T04:43:48;44.25;;;12.23;;
67248;SDS011;63247;54.300;18.592;2023-03-01T04:46:16;44.33;;;12.52;;
67248;SDS011;63247;54.300;18.592;2023-03-01T04:48:44;35.28;;;10.93;;
67248;SDS011;63247;54.300;18.592;2023-03-01T04:51:10;39.93;;;9.73;;
67248;SDS011;63247;54.300;18.592;2023-03-01T04:53:38;48.67;;;12.20;;
67248;SDS011;63247;54.300;18.592;2023-03-01T04:56:05;42.92;;;10.65;;
67248;SDS011;63247;54.300;18.592;2023-03-01T04:58:31;47.08;;;11.88;;
67248;SDS011;63247;54.300;18.592;2023-03-01T05:00:57;47.83;;;11.52;;
67248;SDS011;63247;54.300;18.592;2023-03-01T05:03:22;51.47;;;11.93;;
67248;SDS011;63247;54.300;18.592;2023-03-01T05:05:49;55.17;;;13.00;;
67248;SDS011;63247;54.300;18.592;2023-03-01T05:08:16;48.88;;;13.43;;
67248;SDS011;63247;54.300;18.592;2023-03-01T05:13:14;50.65;;;12.55;;
67248;SDS011;63247;54.300;18.592;2023-03-01T05:15:45;47.60;;;11.35;;
67248;SDS011;63247;54.300;18.592;2023-03-01T05:18:21;57.37;;;12.87;;
67248;SDS011;63247;54.300;18.592;2023-03-01T05:20:53;40.63;;;9.27;;
67248;SDS011;63247;54.300;18.592;2023-03-01T05:23:26;60.25;;;13.68;;
67248;SDS011;63247;54.300;18.592;2023-03-01T05:25:52;56.00;;;12.43;;
67248;SDS011;63247;54.300;18.592;2023-03-01T05:28:18;53.40;;;13.07;;
67248;SDS011;63247;54.300;18.592;2023-03-01T05:30:44;55.30;;;13.57;;
67248;SDS011;63247;54.300;18.592;2023-03-01T05:33:11;55.00;;;12.77;;
67248;SDS011;63247;54.300;18.592;2023-03-01T05:35:40;49.35;;;10.30;;
67248;SDS011;63247;54.300;18.592;2023-03-01T05:38:07;51.97;;;11.23;;
67248;SDS011;63247;54.300;18.592;2023-03-01T05:40:34;61.85;;;14.38;;
67248;SDS011;63247;54.300;18.592;2023-03-01T05:43:00;54.58;;;12.52;;
67248;SDS011;63247;54.300;18.592;2023-03-01T05:45:26;56.13;;;12.80;;
67248;SDS011;63247;54.300;18.592;2023-03-01T05:47:52;49.50;;;11.65;;
67248;SDS011;63247;54.300;18.592;2023-03-01T05:50:21;50.15;;;13.07;;
67248;SDS011;63247;54.300;18.592;2023-03-01T05:52:54;53.17;;;12.77;;
67248;SDS011;63247;54.300;18.592;2023-03-01T05:55:23;54.30;;;12.77;;
67248;SDS011;63247;54.300;18.592;2023-03-01T05:57:48;55.60;;;13.20;;
67248;SDS011;63247;54.300;18.592;2023-03-01T06:00:15;62.40;;;13.60;;
67248;SDS011;63247;54.300;18.592;2023-03-01T06:02:43;41.13;;;9.98;;
67248;SDS011;63247;54.300;18.592;2023-03-01T06:05:09;48.00;;;12.05;;
67248;SDS011;63247;54.300;18.592;2023-03-01T06:07:36;57.43;;;13.80;;
67248;SDS011;63247;54.300;18.592;2023-03-01T06:10:02;47.30;;;11.00;;
67248;SDS011;63247;54.300;18.592;2023-03-01T06:12:30;50.92;;;12.27;;
67248;SDS011;63247;54.300;18.592;2023-03-01T06:14:56;52.42;;;13.25;;
67248;SDS011;63247;54.300;18.592;2023-03-01T06:17:22;50.73;;;12.87;;
67248;SDS011;63247;54.300;18.592;2023-03-01T06:19:47;50.93;;;14.17;;
67248;SDS011;63247;54.300;18.592;2023-03-01T06:22:12;45.67;;;12.63;;
67248;SDS011;63247;54.300;18.592;2023-03-01T06:24:38;41.10;;;10.73;;
67248;SDS011;63247;54.300;18.592;2023-03-01T06:27:04;41.53;;;11.03;;
67248;SDS011;63247;54.300;18.592;2023-03-01T06:29:30;36.20;;;10.18;;
67248;SDS011;63247;54.300;18.592;2023-03-01T06:31:56;37.27;;;10.83;;
67248;SDS011;63247;54.300;18.592;2023-03-01T06:34:21;35.03;;;8.77;;
67248;SDS011;63247;54.300;18.592;2023-03-01T06:36:47;41.93;;;11.67;;
67248;SDS011;63247;54.300;18.592;2023-03-01T06:39:12;45.28;;;12.50;;
67248;SDS011;63247;54.300;18.592;2023-03-01T06:41:38;30.27;;;9.40;;
67248;SDS011;63247;54.300;18.592;2023-03-01T06:44:04;28.08;;;9.82;;
67248;SDS011;63247;54.300;18.592;2023-03-01T06:46:30;26.95;;;9.48;;
67248;SDS011;63247;54.300;18.592;2023-03-01T06:48:55;23.50;;;8.13;;
67248;SDS011;63247;54.300;18.592;2023-03-01T06:51:21;22.57;;;7.87;;
67248;SDS011;63247;54.300;18.592;2023-03-01T06:53:46;25.40;;;8.07;;
67248;SDS011;63247;54.300;18.592;2023-03-01T06:56:12;21.00;;;7.73;;
67248;SDS011;63247;54.300;18.592;2023-03-01T06:58:37;24.13;;;7.30;;
67248;SDS011;63247;54.300;18.592;2023-03-01T07:01:06;25.30;;;8.23;;
67248;SDS011;63247;54.300;18.592;2023-03-01T07:03:33;26.23;;;8.73;;
67248;SDS011;63247;54.300;18.592;2023-03-01T07:05:58;23.00;;;7.80;;
67248;SDS011;63247;54.300;18.592;2023-03-01T07:08:24;25.07;;;8.00;;
67248;SDS011;63247;54.300;18.592;2023-03-01T07:10:54;24.67;;;8.05;;
67248;SDS011;63247;54.300;18.592;2023-03-01T07:13:20;24.90;;;8.90;;
67248;SDS011;63247;54.300;18.592;2023-03-01T07:15:46;22.80;;;7.88;;
67248;SDS011;63247;54.300;18.592;2023-03-01T07:18:11;17.50;;;6.63;;
67248;SDS011;63247;54.300;18.592;2023-03-01T07:20:37;19.73;;;6.87;;
67248;SDS011;63247;54.300;18.592;2023-03-01T07:23:02;20.27;;;7.20;;
67248;SDS011;63247;54.300;18.592;2023-03-01T07:25:28;18.10;;;7.13;;
67248;SDS011;63247;54.300;18.592;2023-03-01T07:27:53;17.92;;;6.93;;
67248;SDS011;63247;54.300;18.592;2023-03-01T07:30:20;18.13;;;7.17;;
67248;SDS011;63247;54.300;18.592;2023-03-01T07:32:46;19.77;;;7.07;;
67248;SDS011;63247;54.300;18.592;2023-03-01T07:35:11;18.50;;;6.83;;
67248;SDS011;63247;54.300;18.592;2023-03-01T07:37:37;17.42;;;7.00;;
67248;SDS011;63247;54.300;18.592;2023-03-01T07:40:03;18.70;;;6.93;;
67248;SDS011;63247;54.300;18.592;2023-03-01T07:42:29;21.85;;;7.78;;
67248;SDS011;63247;54.300;18.592;2023-03-01T07:44:54;17.83;;;6.43;;
67248;SDS011;63247;54.300;18.592;2023-03-01T07:47:20;17.20;;;6.83;;
67248;SDS011;63247;54.300;18.592;2023-03-01T07:49:45;17.33;;;6.80;;
67248;SDS011;63247;54.300;18.592;2023-03-01T07:52:11;16.13;;;6.82;;
67248;SDS011;63247;54.300;18.592;2023-03-01T07:54:37;17.67;;;7.07;;
67248;SDS011;63247;54.300;18.592;2023-03-01T07:57:03;18.95;;;7.18;;
67248;SDS011;63247;54.300;18.592;2023-03-01T07:59:28;17.10;;;7.53;;
67248;SDS011;63247;54.300;18.592;2023-03-01T08:01:57;18.27;;;7.93;;
67248;SDS011;63247;54.300;18.592;2023-03-01T08:04:23;18.45;;;7.43;;
67248;SDS011;63247;54.300;18.592;2023-03-01T08:06:52;20.55;;;8.32;;
67248;SDS011;63247;54.300;18.592;2023-03-01T08:09:19;19.70;;;8.13;;
67248;SDS011;63247;54.300;18.592;2023-03-01T08:11:45;20.65;;;8.73;;
67248;SDS011;63247;54.300;18.592;2023-03-01T08:14:10;18.80;;;7.57;;
67248;SDS011;63247;54.300;18.592;2023-03-01T08:16:36;19.07;;;7.73;;
67248;SDS011;63247;54.300;18.592;2023-03-01T08:19:08;19.60;;;8.40;;
67248;SDS011;63247;54.300;18.592;2023-03-01T08:21:35;18.00;;;7.60;;
67248;SDS011;63247;54.300;18.592;2023-03-01T08:24:01;20.42;;;8.55;;
67248;SDS011;63247;54.300;18.592;2023-03-01T08:26:31;16.90;;;7.78;;
67248;SDS011;63247;54.300;18.592;2023-03-01T08:28:57;19.80;;;7.73;;
67248;SDS011;63247;54.300;18.592;2023-03-01T08:33:53;16.88;;;7.13;;
67248;SDS011;63247;54.300;18.592;2023-03-01T08:36:24;16.20;;;7.50;;
67248;SDS011;63247;54.300;18.592;2023-03-01T08:38:54;18.10;;;8.53;;
67248;SDS011;63247;54.300;18.592;2023-03-01T08:41:20;18.00;;;7.88;;
67248;SDS011;63247;54.300;18.592;2023-03-01T08:43:45;18.40;;;7.38;;
67248;SDS011;63247;54.300;18.592;2023-03-01T08:46:11;18.97;;;8.10;;
67248;SDS011;63247;54.300;18.592;2023-03-01T08:48:37;20.88;;;8.40;;
67248;SDS011;63247;54.300;18.592;2023-03-01T08:51:07;17.13;;;7.93;;
67248;SDS011;63247;54.300;18.592;2023-03-01T08:53:37;15.18;;;7.50;;
67248;SDS011;63247;54.300;18.592;2023-03-01T08:56:03;18.05;;;8.50;;
67248;SDS011;63247;54.300;18.592;2023-03-01T08:58:29;18.85;;;8.50;;
67248;SDS011;63247;54.300;18.592;2023-03-01T09:00:55;17.63;;;8.10;;
67248;SDS011;63247;54.300;18.592;2023-03-01T09:03:24;14.70;;;7.10;;
67248;SDS011;63247;54.300;18.592;2023-03-01T09:05:51;16.58;;;7.95;;
67248;SDS011;63247;54.300;18.592;2023-03-01T09:08:17;17.92;;;7.90;;
67248;SDS011;63247;54.300;18.592;2023-03-01T09:10:43;15.95;;;8.02;;
67248;SDS011;63247;54.300;18.592;2023-03-01T09:13:09;17.60;;;8.17;;
67248;SDS011;63247;54.300;18.592;2023-03-01T09:15:36;16.47;;;8.90;;
67248;SDS011;63247;54.300;18.592;2023-03-01T09:18:02;21.40;;;8.60;;
67248;SDS011;63247;54.300;18.592;2023-03-01T09:20:29;15.60;;;7.50;;
67248;SDS011;63247;54.300;18.592;2023-03-01T09:22:56;18.77;;;8.10;;
67248;SDS011;63247;54.300;18.592;2023-03-01T09:25:21;17.40;;;8.37;;
67248;SDS011;63247;54.300;18.592;2023-03-01T09:27:49;15.40;;;8.10;;
67248;SDS011;63247;54.300;18.592;2023-03-01T09:30:16;19.35;;;7.95;;
67248;SDS011;63247;54.300;18.592;2023-03-01T09:32:42;15.80;;;7.70;;
67248;SDS011;63247;54.300;18.592;2023-03-01T09:35:09;18.17;;;7.97;;
67248;SDS011;63247;54.300;18.592;2023-03-01T09:37:36;17.00;;;8.40;;
67248;SDS011;63247;54.300;18.592;2023-03-01T09:40:03;17.50;;;8.30;;
67248;SDS011;63247;54.300;18.592;2023-03-01T09:42:34;18.63;;;8.73;;
67248;SDS011;63247;54.300;18.592;2023-03-01T09:45:02;18.30;;;8.90;;
67248;SDS011;63247;54.300;18.592;2023-03-01T09:47:30;15.68;;;7.65;;
67248;SDS011;63247;54.300;18.592;2023-03-01T09:52:54;16.55;;;8.30;;
67248;SDS011;63247;54.300;18.592;2023-03-01T09:58:49;16.63;;;7.88;;
67248;SDS011;63247;54.300;18.592;2023-03-01T10:09:38;15.20;;;6.57;;
67248;SDS011;63247;54.300;18.592;2023-03-01T10:12:15;14.95;;;6.80;;
67248;SDS011;63247;54.300;18.592;2023-03-01T10:14:57;13.27;;;6.88;;
67248;SDS011;63247;54.300;18.592;2023-03-01T10:22:48;17.52;;;7.15;;
67248;SDS011;63247;54.300;18.592;2023-03-01T10:25:34;14.05;;;7.05;;
67248;SDS011;63247;54.300;18.592;2023-03-01T10:28:25;14.57;;;7.25;;
67248;SDS011;63247;54.300;18.592;2023-03-01T10:30:56;15.70;;;7.30;;
67248;SDS011;63247;54.300;18.592;2023-03-01T10:33:24;14.18;;;6.95;;
67248;SDS011;63247;54.300;18.592;2023-03-01T10:35:53;15.18;;;7.65;;
67248;SDS011;63247;54.300;18.592;2023-03-01T10:38:19;14.88;;;6.88;;
67248;SDS011;63247;54.300;18.592;2023-03-01T10:46:22;17.40;;;8.30;;
67248;SDS011;63247;54.300;18.592;2023-03-01T10:49:05;16.63;;;7.75;;
67248;SDS011;63247;54.300;18.592;2023-03-01T10:51:37;15.25;;;7.50;;
67248;SDS011;63247;54.300;18.592;2023-03-01T10:54:06;18.77;;;7.70;;
67248;SDS011;63247;54.300;18.592;2023-03-01T10:57:01;17.13;;;7.10;;
67248;SDS011;63247;54.300;18.592;2023-03-01T10:59:30;15.60;;;7.40;;
67248;SDS011;63247;54.300;18.592;2023-03-01T11:02:01;17.73;;;7.00;;
67248;SDS011;63247;54.300;18.592;2023-03-01T11:04:29;17.00;;;7.72;;
67248;SDS011;63247;54.300;18.592;2023-03-01T11:06:58;16.13;;;7.20;;
67248;SDS011;63247;54.300;18.592;2023-03-01T11:09:25;16.30;;;6.72;;
67248;SDS011;63247;54.300;18.592;2023-03-01T11:11:55;17.33;;;6.75;;
67248;SDS011;63247;54.300;18.592;2023-03-01T11:14:23;16.10;;;6.17;;
67248;SDS011;63247;54.300;18.592;2023-03-01T11:19:28;17.00;;;7.45;;
67248;SDS011;63247;54.300;18.592;2023-03-01T11:22:12;16.93;;;7.53;;
67248;SDS011;63247;54.300;18.592;2023-03-01T11:24:51;17.45;;;6.90;;
67248;SDS011;63247;54.300;18.592;2023-03-01T11:27:25;17.80;;;7.55;;
67248;SDS011;63247;54.300;18.592;2023-03-01T11:29:52;18.75;;;6.90;;
67248;SDS011;63247;54.300;18.592;2023-03-01T11:32:23;14.18;;;6.32;;
67248;SDS011;63247;54.300;18.592;2023-03-01T11:37:38;17.60;;;7.22;;
67248;SDS011;63247;54.300;18.592;2023-03-01T11:40:16;16.95;;;7.47;;
67248;SDS011;63247;54.300;18.592;2023-03-01T11:42:57;20.73;;;7.88;;
67248;SDS011;63247;54.300;18.592;2023-03-01T11:45:24;20.00;;;7.85;;
67248;SDS011;63247;54.300;18.592;2023-03-01T11:50:44;18.40;;;6.80;;
67248;SDS011;63247;54.300;18.592;2023-03-01T12:04:17;19.10;;;7.22;;
67248;SDS011;63247;54.300;18.592;2023-03-01T12:06:50;17.65;;;7.55;;
67248;SDS011;63247;54.300;18.592;2023-03-01T12:15:17;18.17;;;6.77;;
67248;SDS011;63247;54.300;18.592;2023-03-01T12:28:59;15.63;;;6.67;;
67248;SDS011;63247;54.300;18.592;2023-03-01T12:40:12;21.13;;;7.85;;
67248;SDS011;63247;54.300;18.592;2023-03-01T12:51:01;24.05;;;8.13;;
67248;SDS011;63247;54.300;18.592;2023-03-01T12:53:31;22.42;;;8.25;;
67248;SDS011;63247;54.300;18.592;2023-03-01T12:56:02;22.50;;;8.73;;
67248;SDS011;63247;54.300;18.592;2023-03-01T13:04:22;22.08;;;7.47;;
67248;SDS011;63247;54.300;18.592;2023-03-01T13:07:00;22.80;;;7.97;;
67248;SDS011;63247;54.300;18.592;2023-03-01T13:09:44;24.03;;;8.70;;
67248;SDS011;63247;54.300;18.592;2023-03-01T13:20:27;25.92;;;9.68;;
67248;SDS011;63247;54.300;18.592;2023-03-01T13:33:45;22.63;;;8.70;;
67248;SDS011;63247;54.300;18.592;2023-03-01T13:37:08;21.40;;;8.70;;
67248;SDS011;63247;54.300;18.592;2023-03-01T13:39:00;29.02;;;10.60;;
67248;SDS011;63247;54.300;18.592;2023-03-01T13:44:12;26.17;;;8.73;;
67248;SDS011;63247;54.300;18.592;2023-03-01T13:46:38;26.60;;;10.93;;
67248;SDS011;63247;54.300;18.592;2023-03-01T13:49:03;23.70;;;8.53;;
67248;SDS011;63247;54.300;18.592;2023-03-01T13:51:29;27.87;;;9.50;;
67248;SDS011;63247;54.300;18.592;2023-03-01T13:53:55;24.05;;;9.27;;
67248;SDS011;63247;54.300;18.592;2023-03-01T13:56:33;24.70;;;8.93;;
67248;SDS011;63247;54.300;18.592;2023-03-01T13:59:05;22.73;;;8.07;;
67248;SDS011;63247;54.300;18.592;2023-03-01T14:01:35;21.73;;;7.80;;
67248;SDS011;63247;54.300;18.592;2023-03-01T14:04:02;22.40;;;8.10;;
67248;SDS011;63247;54.300;18.592;2023-03-01T14:06:32;26.13;;;8.80;;
67248;SDS011;63247;54.300;18.592;2023-03-01T14:09:20;20.88;;;8.57;;
67248;SDS011;63247;54.300;18.592;2023-03-01T14:17:48;22.07;;;8.83;;
67248;SDS011;63247;54.300;18.592;2023-03-01T14:20:32;24.13;;;8.30;;
67248;SDS011;63247;54.300;18.592;2023-03-01T14:23:09;23.25;;;8.35;;
67248;SDS011;63247;54.300;18.592;2023-03-01T14:25:38;21.98;;;7.88;;
67248;SDS011;63247;54.300;18.592;2023-03-01T14:28:24;25.27;;;9.02;;
67248;SDS011;63247;54.300;18.592;2023-03-01T14:30:55;23.53;;;8.43;;
67248;SDS011;63247;54.300;18.592;2023-03-01T14:41:06;30.42;;;8.85;;
67248;SDS011;63247;54.300;18.592;2023-03-01T14:43:34;24.47;;;8.03;;
67248;SDS011;63247;54.300;18.592;2023-03-01T14:46:02;21.92;;;7.50;;
67248;SDS011;63247;54.300;18.592;2023-03-01T14:48:28;24.35;;;8.48;;
67248;SDS011;63247;54.300;18.592;2023-03-01T14:50:54;22.13;;;7.50;;
67248;SDS011;63247;54.300;18.592;2023-03-01T14:53:24;24.90;;;9.27;;
67248;SDS011;63247;54.300;18.592;2023-03-01T14:55:56;22.88;;;8.27;;
67248;SDS011;63247;54.300;18.592;2023-03-01T14:58:28;24.42;;;9.10;;
67248;SDS011;63247;54.300;18.592;2023-03-01T15:00:59;36.85;;;10.73;;
67248;SDS011;63247;54.300;18.592;2023-03-01T15:05:56;28.17;;;9.45;;
67248;SDS011;63247;54.300;18.592;2023-03-01T15:08:25;27.48;;;10.13;;
67248;SDS011;63247;54.300;18.592;2023-03-01T15:13:34;24.02;;;9.20;;
67248;SDS011;63247;54.300;18.592;2023-03-01T15:18:50;24.73;;;8.68;;
67248;SDS011;63247;54.300;18.592;2023-03-01T15:21:24;22.33;;;8.32;;
67248;SDS011;63247;54.300;18.592;2023-03-01T15:23:57;25.48;;;8.90;;
67248;SDS011;63247;54.300;18.592;2023-03-01T15:29:26;25.93;;;8.53;;
67248;SDS011;63247;54.300;18.592;2023-03-01T15:32:00;27.02;;;9.38;;
67248;SDS011;63247;54.300;18.592;2023-03-01T15:34:31;25.05;;;9.05;;
67248;SDS011;63247;54.300;18.592;2023-03-01T15:37:06;25.95;;;9.82;;
67248;SDS011;63247;54.300;18.592;2023-03-01T15:39:52;28.35;;;8.48;;
67248;SDS011;63247;54.300;18.592;2023-03-01T15:47:40;24.30;;;8.90;;
67248;SDS011;63247;54.300;18.592;2023-03-01T15:53:12;26.52;;;9.55;;
67248;SDS011;63247;54.300;18.592;2023-03-01T15:55:40;26.30;;;9.10;;
67248;SDS011;63247;54.300;18.592;2023-03-01T15:58:09;24.75;;;8.25;;
67248;SDS011;63247;54.300;18.592;2023-03-01T16:00:39;24.65;;;9.20;;
67248;SDS011;63247;54.300;18.592;2023-03-01T16:03:05;24.85;;;9.45;;
67248;SDS011;63247;54.300;18.592;2023-03-01T16:05:34;26.33;;;9.93;;
67248;SDS011;63247;54.300;18.592;2023-03-01T16:08:01;30.15;;;9.82;;
67248;SDS011;63247;54.300;18.592;2023-03-01T16:10:27;26.40;;;9.63;;
67248;SDS011;63247;54.300;18.592;2023-03-01T16:12:53;28.83;;;10.70;;
67248;SDS011;63247;54.300;18.592;2023-03-01T16:15:23;29.20;;;10.30;;
67248;SDS011;63247;54.300;18.592;2023-03-01T16:17:50;31.40;;;10.88;;
67248;SDS011;63247;54.300;18.592;2023-03-01T16:20:17;36.58;;;11.40;;
67248;SDS011;63247;54.300;18.592;2023-03-01T16:22:43;37.08;;;13.20;;
67248;SDS011;63247;54.300;18.592;2023-03-01T16:25:10;45.25;;;13.90;;
67248;SDS011;63247;54.300;18.592;2023-03-01T16:27:36;47.28;;;14.30;;
67248;SDS011;63247;54.300;18.592;2023-03-01T16:30:02;47.58;;;15.10;;
67248;SDS011;63247;54.300;18.592;2023-03-01T16:32:29;48.67;;;14.85;;
67248;SDS011;63247;54.300;18.592;2023-03-01T16:34:54;53.53;;;15.77;;
67248;SDS011;63247;54.300;18.592;2023-03-01T16:37:20;48.25;;;15.57;;
67248;SDS011;63247;54.300;18.592;2023-03-01T16:39:47;51.58;;;15.65;;
67248;SDS011;63247;54.300;18.592;2023-03-01T16:42:15;46.83;;;13.90;;
67248;SDS011;63247;54.300;18.592;2023-03-01T16:44:42;48.97;;;14.45;;
67248;SDS011;63247;54.300;18.592;2023-03-01T16:47:07;45.80;;;14.03;;
67248;SDS011;63247;54.300;18.592;2023-03-01T16:49:32;43.78;;;14.55;;
67248;SDS011;63247;54.300;18.592;2023-03-01T16:51:58;49.23;;;16.30;;
67248;SDS011;63247;54.300;18.592;2023-03-01T16:54:24;39.97;;;14.50;;
67248;SDS011;63247;54.300;18.592;2023-03-01T16:56:50;43.67;;;14.07;;
67248;SDS011;63247;54.300;18.592;2023-03-01T16:59:16;45.13;;;15.05;;
67248;SDS011;63247;54.300;18.592;2023-03-01T17:01:43;44.37;;;15.83;;
67248;SDS011;63247;54.300;18.592;2023-03-01T17:04:12;42.25;;;15.45;;
67248;SDS011;63247;54.300;18.592;2023-03-01T17:06:37;46.67;;;16.05;;